Time;durP1;ratioP1;P1;durP2;ratioP2;P2;SDS_P1;SDS_P2;PMS_P1;PMS_P2;Temp;Humidity;BMP_temperature;BMP_pressure;BME280_temperature;BME280_humidity;BME280_pressure;Samples;Min_cycle;Max_cycle;Signal;HPM_P1;HPM_P2
2021/04/07 00:00:42;;;;;;;37.88;18.07;;;;;;;-1.13;78.48;99554.88;1692751;83;26039;-62
2021/04/07 00:03:11;;;;;;;37.53;14.87;;;;;;;-1.10;78.59;99544.77;1679976;81;25813;-62
2021/04/07 00:05:45;;;;;;;33.88;14.18;;;;;;;-1.09;78.74;99543.87;1702651;81;25783;-62
2021/04/07 00:08:26;;;;;;;33.13;15.55;;;;;;;-1.09;78.88;99553.94;1703463;81;25882;-62
2021/04/07 00:10:54;;;;;;;38.05;15.98;;;;;;;-1.08;79.03;99547.80;1696584;82;28434;-61
2021/04/07 00:13:23;;;;;;;41.60;19.85;;;;;;;-1.07;79.00;99546.03;1690662;82;25906;-62
2021/04/07 00:15:51;;;;;;;40.73;17.12;;;;;;;-1.08;79.04;99544.30;1688691;82;26609;-61
2021/04/07 00:18:21;;;;;;;35.90;16.42;;;;;;;-1.08;79.21;99549.55;1715093;82;26128;-61
2021/04/07 00:20:49;;;;;;;34.43;13.48;;;;;;;-1.09;79.24;99549.13;1708257;82;25873;-61
2021/04/07 00:23:19;;;;;;;42.83;16.32;;;;;;;-1.09;79.50;99543.87;1681155;82;28563;-61
2021/04/07 00:25:49;;;;;;;40.23;17.30;;;;;;;-1.09;79.59;99543.42;1688576;82;26683;-61
2021/04/07 00:28:19;;;;;;;32.95;15.48;;;;;;;-1.11;79.85;99539.95;1691216;82;25872;-62
2021/04/07 00:30:49;;;;;;;39.33;15.85;;;;;;;-1.10;79.95;99539.06;1700120;82;26824;-61
2021/04/07 00:33:19;;;;;;;31.65;13.40;;;;;;;-1.09;79.93;99544.74;1692764;82;25900;-61
2021/04/07 00:35:48;;;;;;;;;;;;;;;-1.09;80.17;99540.80;1696241;83;26018;-62
2021/04/07 00:38:19;;;;;;;48.30;19.10;;;;;;;-1.07;80.15;99554.80;1658690;84;25841;-61
2021/04/07 00:40:47;;;;;;;45.83;20.65;;;;;;;-1.05;80.30;99546.44;1682098;84;25898;-62
2021/04/07 00:43:17;;;;;;;41.35;20.27;;;;;;;-1.01;80.38;99545.50;1690593;82;26138;-62
2021/04/07 00:45:46;;;;;;;46.28;19.98;;;;;;;-0.97;80.48;99546.77;1694621;82;25880;-61
2021/04/07 00:48:14;;;;;;;34.27;17.00;;;;;;;-0.94;80.49;99550.67;1698744;82;27745;-61
2021/04/07 00:50:42;;;;;;;50.88;20.60;;;;;;;-0.89;80.77;99548.84;1678020;82;26207;-62
2021/04/07 00:53:13;;;;;;;49.60;21.42;;;;;;;-0.90;80.78;99555.00;1698976;83;25844;-62
2021/04/07 00:55:45;;;;;;;57.25;23.57;;;;;;;-0.89;80.88;99547.53;1697577;82;26769;-61
2021/04/07 00:58:16;;;;;;;56.35;21.52;;;;;;;-0.92;80.97;99545.81;1688166;82;25873;-61
2021/04/07 01:00:45;;;;;;;49.80;22.55;;;;;;;-0.92;81.11;99550.20;1695481;82;26172;-61
2021/04/07 01:03:14;;;;;;;49.88;23.65;;;;;;;-0.93;81.22;99545.39;1688998;82;25759;-61
2021/04/07 01:05:42;;;;;;;57.38;22.67;;;;;;;-0.94;81.26;99548.91;1690748;82;25847;-62
2021/04/07 01:08:10;;;;;;;46.85;20.92;;;;;;;-0.94;81.44;99550.23;1685357;82;26032;-61
2021/04/07 01:10:38;;;;;;;54.58;23.77;;;;;;;-0.95;81.48;99554.20;1680271;82;25939;-61
2021/04/07 01:13:06;;;;;;;47.90;21.55;;;;;;;-0.96;81.66;99561.22;1683926;82;28503;-62
2021/04/07 01:15:34;;;;;;;51.00;23.45;;;;;;;-0.94;81.96;99566.45;1704232;82;25834;-61
2021/04/07 01:18:02;;;;;;;45.60;20.88;;;;;;;-0.96;82.09;99565.16;1675586;83;26215;-62
2021/04/07 01:20:29;;;;;;;49.05;21.90;;;;;;;-0.96;82.32;99561.66;1688303;82;26188;-61
2021/04/07 01:23:01;;;;;;;61.33;25.25;;;;;;;-0.97;82.53;99569.13;1683844;83;25969;-61
2021/04/07 01:25:30;;;;;;;48.70;22.45;;;;;;;-0.97;82.79;99570.00;1707549;81;26543;-61
2021/04/07 01:28:01;;;;;;;62.60;25.05;;;;;;;-1.00;82.91;99559.52;1727576;81;26292;-62
2021/04/07 01:30:45;;;;;;;59.98;21.90;;;;;;;-0.96;82.81;99562.98;1723686;81;25849;-61
2021/04/07 01:33:00;;;;;;;62.55;24.87;;;;;;;-0.95;82.83;99568.22;1705295;81;26515;-61
2021/04/07 01:35:29;;;;;;;54.18;24.00;;;;;;;-0.96;82.76;99568.23;1701525;82;25856;-62
2021/04/07 01:37:57;;;;;;;52.70;22.67;;;;;;;-0.95;82.96;99564.27;1685369;81;27919;-61
2021/04/07 01:40:25;;;;;;;60.52;25.88;;;;;;;-0.95;82.96;99571.30;1706922;83;25878;-61
2021/04/07 01:42:54;;;;;;;56.63;23.75;;;;;;;-0.95;82.98;99573.92;1701016;81;26261;-61
2021/04/07 01:45:22;;;;;;;58.85;26.10;;;;;;;-0.98;83.08;99577.47;1712519;83;26515;-60
2021/04/07 01:47:53;;;;;;;46.48;22.87;;;;;;;-0.99;83.20;99577.04;1709575;81;26380;-60
2021/04/07 01:50:21;;;;;;;55.55;24.82;;;;;;;-0.95;83.29;99580.50;1704933;81;28442;-61
2021/04/07 01:52:49;;;;;;;69.77;26.77;;;;;;;-0.90;83.26;99579.98;1711614;81;25887;-60
2021/04/07 01:55:16;;;;;;;63.50;25.35;;;;;;;-0.87;83.31;99574.69;1699232;81;26135;-61
2021/04/07 01:57:44;;;;;;;59.30;25.15;;;;;;;-0.84;83.31;99574.64;1667855;83;25809;-61
2021/04/07 02:00:16;;;;;;;40.08;20.43;;;;;;;-0.82;83.43;99574.17;1673416;84;26433;-61
2021/04/07 02:02:44;;;;;;;58.15;23.92;;;;;;;-0.78;83.57;99578.05;1666234;84;26611;-61
2021/04/07 02:05:14;;;;;;;66.35;26.73;;;;;;;-0.75;83.83;99581.08;1694388;82;26123;-62
2021/04/07 02:07:43;;;;;;;79.17;26.60;;;;;;;-0.75;83.70;99579.77;1724086;81;25885;-61
2021/04/07 02:10:12;;;;;;;62.08;27.17;;;;;;;-0.72;84.00;99581.91;1695924;81;27186;-61
2021/04/07 02:12:40;;;;;;;48.68;24.27;;;;;;;-0.73;84.09;99595.09;1704887;82;26208;-62
2021/04/07 02:15:16;;;;;;;57.60;25.30;;;;;;;-0.69;84.17;99583.63;1711417;82;28184;-62
2021/04/07 02:17:46;;;;;;;55.17;24.63;;;;;;;-0.67;84.24;99588.42;1706440;81;25632;-62
2021/04/07 02:20:15;;;;;;;72.20;29.13;;;;;;;-0.69;84.19;99584.94;1708813;81;26208;-62
2021/04/07 02:22:49;;;;;;;49.58;23.18;;;;;;;-0.71;84.41;99591.55;1704548;81;25858;-62
2021/04/07 02:25:20;;;;;;;61.65;28.45;;;;;;;-0.75;84.53;99588.98;1706316;81;25845;-62
2021/04/07 02:27:49;;;;;;;72.00;31.80;;;;;;;-0.79;84.51;99587.28;1701307;81;27790;-62
2021/04/07 02:30:19;;;;;;;71.47;28.50;;;;;;;-0.81;84.44;99588.62;1696224;81;25937;-61
2021/04/07 02:32:49;;;;;;;61.55;28.27;;;;;;;-0.82;84.46;99596.09;1718171;82;26497;-62
2021/04/07 02:35:16;;;;;;;82.75;26.97;;;;;;;-0.81;84.56;99594.33;1702216;81;26720;-62
2021/04/07 02:37:44;;;;;;;60.35;24.55;;;;;;;-0.82;84.51;99591.27;1713500;81;25843;-62
2021/04/07 02:40:13;;;;;;;34.00;18.92;;;;;;;-0.82;84.54;99589.95;1695946;82;27785;-61
2021/04/07 02:42:41;;;;;;;59.95;22.80;;;;;;;-0.82;84.67;99596.53;1703067;81;25883;-61
2021/04/07 02:45:11;;;;;;;45.63;20.85;;;;;;;-0.84;84.82;99599.19;1707940;82;26196;-61
2021/04/07 02:47:39;;;;;;;43.80;21.70;;;;;;;-0.84;84.89;99601.81;1711330;81;26264;-61
2021/04/07 02:50:08;;;;;;;56.75;23.00;;;;;;;-0.83;84.90;99596.98;1710909;82;26075;-61
2021/04/07 02:52:35;;;;;;;47.13;22.62;;;;;;;-0.79;84.92;99596.48;1706625;81;27034;-61
2021/04/07 02:55:05;;;;;;;35.95;18.75;;;;;;;-0.78;84.87;99604.36;1701603;82;26671;-61
2021/04/07 02:57:32;;;;;;;52.88;21.15;;;;;;;-0.76;85.02;99603.02;1725706;82;25872;-61
2021/04/07 03:00:06;;;;;;;56.73;24.15;;;;;;;-0.77;85.03;99602.16;1704095;82;25786;-61
2021/04/07 03:02:34;;;;;;;38.78;19.25;;;;;;;-0.74;85.03;99610.45;1704308;81;26282;-62
2021/04/07 03:05:03;;;;;;;55.60;21.35;;;;;;;-0.71;85.10;99610.41;1701649;82;27838;-62
2021/04/07 03:07:33;;;;;;;55.07;22.90;;;;;;;-0.71;85.13;99614.35;1695355;82;25872;-62
2021/04/07 03:10:04;;;;;;;42.45;20.17;;;;;;;-0.71;85.15;99609.95;1664555;83;25878;-62
2021/04/07 03:12:32;;;;;;;37.48;17.25;;;;;;;-0.70;85.13;99604.25;1672728;83;25813;-62
2021/04/07 03:14:59;;;;;;;49.73;20.30;;;;;;;-0.69;85.27;99616.07;1661386;84;25963;-62
2021/04/07 03:17:27;;;;;;;53.58;22.52;;;;;;;-0.70;85.29;99614.33;1669067;84;27009;-62
2021/04/07 03:19:55;;;;;;;51.92;21.73;;;;;;;-0.70;85.35;99613.46;1678844;83;25994;-61
2021/04/07 03:22:24;;;;;;;48.38;20.08;;;;;;;-0.69;85.30;99608.62;1691366;81;25786;-62
2021/04/07 03:24:51;;;;;;;33.45;15.83;;;;;;;-0.65;85.33;99619.52;1712024;81;26113;-62
2021/04/07 03:27:20;;;;;;;34.70;17.50;;;;;;;-0.67;85.46;99610.34;1692238;82;25921;-62
2021/04/07 03:29:51;;;;;;;39.05;19.25;;;;;;;-0.66;85.44;99611.20;1667238;83;26452;-62
2021/04/07 03:32:21;;;;;;;;;;;;;;;-0.64;85.53;99617.32;1688958;82;25844;-62
2021/04/07 03:34:49;;;;;;;59.65;25.37;;;;;;;-0.64;85.67;99621.27;1670095;83;26239;-62
2021/04/07 03:37:16;;;;;;;46.33;19.77;;;;;;;-0.63;85.77;99623.45;1634102;84;25864;-62
2021/04/07 03:39:44;;;;;;;54.10;21.12;;;;;;;-0.61;85.78;99622.53;1673178;84;25871;-62
2021/04/07 03:42:12;;;;;;;52.58;22.80;;;;;;;-0.56;85.73;99622.47;1715366;81;26692;-62
2021/04/07 03:44:40;;;;;;;55.25;24.47;;;;;;;-0.55;85.82;99627.71;1710188;82;25853;-62
2021/04/07 03:47:09;;;;;;;65.52;27.70;;;;;;;-0.52;85.80;99627.66;1683643;82;26526;-62
2021/04/07 03:49:39;;;;;;;54.40;23.67;;;;;;;-0.52;85.82;99628.98;1686465;82;25861;-62
2021/04/07 03:52:08;;;;;;;46.70;21.10;;;;;;;-0.52;85.87;99630.30;1693871;82;25804;-62
2021/04/07 03:54:36;;;;;;;67.87;25.32;;;;;;;-0.51;85.80;99632.04;1714139;81;26405;-61
2021/04/07 03:57:04;;;;;;;42.23;20.37;;;;;;;-0.53;85.87;99637.77;1704483;82;26179;-61
2021/04/07 03:59:33;;;;;;;49.63;22.05;;;;;;;-0.55;85.87;99643.95;1712851;81;25932;-63
2021/04/07 04:02:01;;;;;;;46.75;21.57;;;;;;;-0.59;86.18;99640.48;1713849;81;25983;-63
2021/04/07 04:04:31;;;;;;;57.48;25.95;;;;;;;-0.62;86.21;99638.34;1688189;84;25840;-65
2021/04/07 04:06:59;;;;;;;48.33;23.52;;;;;;;-0.63;86.18;99624.77;1685042;83;28451;-61
2021/04/07 04:09:29;;;;;;;52.85;22.50;;;;;;;-0.58;86.16;99625.13;1686904;84;25912;-64
2021/04/07 04:11:58;;;;;;;41.92;19.42;;;;;;;-0.56;86.12;99629.92;1715394;82;25973;-61
2021/04/07 04:14:26;;;;;;;56.85;21.45;;;;;;;-0.53;86.18;99637.77;1681813;82;26266;-64
2021/04/07 04:16:54;;;;;;;58.90;20.32;;;;;;;-0.52;86.09;99637.33;1694409;82;26122;-63
2021/04/07 04:19:21;;;;;;;63.30;23.35;;;;;;;-0.50;86.10;99637.72;1669128;82;27772;-61
2021/04/07 04:21:53;;;;;;;52.83;22.10;;;;;;;-0.46;86.15;99638.10;1688226;82;26591;-61
2021/04/07 04:24:20;;;;;;;;;;;;;;;-0.44;86.08;99643.34;1613383;86;25944;-61
2021/04/07 04:26:50;;;;;;;36.20;17.77;;;;;;;-0.44;85.97;99646.84;1613651;85;26641;-64
2021/04/07 04:29:17;;;;;;;60.88;21.57;;;;;;;-0.42;86.11;99652.95;1664775;83;26144;-64
2021/04/07 04:31:47;;;;;;;46.33;20.57;;;;;;;-0.39;86.12;99651.59;1681639;83;27787;-64
2021/04/07 04:34:14;;;;;;;36.10;17.12;;;;;;;-0.37;86.17;99666.92;1682131;83;25899;-64
2021/04/07 04:36:42;;;;;;;62.20;23.77;;;;;;;-0.35;86.19;99657.23;1684597;83;25961;-62
2021/04/07 04:39:10;;;;;;;47.70;18.85;;;;;;;-0.32;86.22;99657.64;1677397;82;26069;-61
2021/04/07 04:41:39;;;;;;;40.70;18.02;;;;;;;-0.28;86.18;99661.97;1690370;83;25857;-63
2021/04/07 04:44:06;;;;;;;39.53;17.30;;;;;;;-0.27;86.13;99651.86;1683794;82;27565;-62
2021/04/07 04:46:35;;;;;;;46.95;20.23;;;;;;;-0.28;86.10;99660.66;1686284;83;25780;-62
2021/04/07 04:49:03;;;;;;;57.23;22.98;;;;;;;-0.27;86.23;99657.57;1685299;82;25841;-62
2021/04/07 04:51:31;;;;;;;47.20;20.88;;;;;;;-0.21;86.26;99664.06;1691623;83;26375;-63
2021/04/07 04:53:59;;;;;;;54.10;23.38;;;;;;;-0.19;86.20;99661.83;1690046;82;25871;-63
2021/04/07 04:56:26;;;;;;;49.85;23.55;;;;;;;-0.11;86.25;99665.66;1689956;83;27422;-63
2021/04/07 04:58:54;;;;;;;42.67;19.55;;;;;;;-0.08;86.24;99664.30;1690598;82;25808;-63
2021/04/07 05:01:22;;;;;;;48.98;17.37;;;;;;;-0.02;86.27;99669.46;1688766;82;25899;-63
2021/04/07 05:03:49;;;;;;;30.90;16.20;;;;;;;-0.01;86.27;99672.52;1686554;83;26074;-63
2021/04/07 05:06:17;;;;;;;23.27;13.50;;;;;;;-0.05;86.25;99672.14;1683576;82;25934;-62
2021/04/07 05:08:49;;;;;;;62.05;22.80;;;;;;;-0.13;86.09;99682.80;1689407;82;27799;-62
2021/04/07 05:11:16;;;;;;;48.92;23.52;;;;;;;-0.24;86.24;99678.14;1687749;82;25823;-63
2021/04/07 05:13:44;;;;;;;60.70;23.50;;;;;;;-0.31;86.28;99674.31;1681716;82;26302;-63
2021/04/07 05:16:12;;;;;;;43.02;20.57;;;;;;;-0.30;86.38;99686.58;1692054;82;26524;-62
2021/04/07 05:18:40;;;;;;;57.10;22.05;;;;;;;-0.30;86.37;99681.31;1693602;82;25841;-63
2021/04/07 05:21:09;;;;;;;27.20;14.50;;;;;;;-0.28;86.43;99683.48;1693243;82;27707;-63
2021/04/07 05:23:36;;;;;;;40.65;18.00;;;;;;;-0.30;86.28;99691.84;1701164;82;25725;-63
2021/04/07 05:26:04;;;;;;;54.30;23.30;;;;;;;-0.29;86.41;99694.45;1678425;83;25696;-63
2021/04/07 05:28:34;;;;;;;30.85;15.20;;;;;;;-0.25;86.49;99692.20;1678494;83;25769;-62
2021/04/07 05:31:04;;;;;;;58.00;21.73;;;;;;;-0.19;86.53;99703.96;1678745;83;25667;-63
2021/04/07 05:33:36;;;;;;;39.73;17.60;;;;;;;-0.16;86.54;99702.59;1685006;83;28069;-62
2021/04/07 05:36:10;;;;;;;42.75;16.90;;;;;;;-0.14;86.46;99708.71;1678042;83;26040;-61
2021/04/07 05:38:41;;;;;;;49.73;22.25;;;;;;;-0.13;86.55;99714.41;1684898;83;25761;-61
2021/04/07 05:41:10;;;;;;;54.13;21.23;;;;;;;-0.10;86.62;99709.09;1684838;83;26093;-61
2021/04/07 05:43:39;;;;;;;48.63;19.30;;;;;;;-0.06;86.63;99716.05;1700748;83;25829;-61
2021/04/07 05:46:09;;;;;;;33.98;15.28;;;;;;;-0.01;86.75;99727.39;1699929;83;27505;-61
2021/04/07 05:48:40;;;;;;;43.78;18.85;;;;;;;0.05;86.75;99722.44;1686097;82;26224;-62
2021/04/07 05:51:08;;;;;;;44.03;15.90;;;;;;;0.08;86.82;99725.03;1690601;82;25966;-61
2021/04/07 05:53:36;;;;;;;29.02;14.05;;;;;;;0.11;86.79;99724.98;1690557;83;26853;-62
2021/04/07 05:56:05;;;;;;;45.78;17.05;;;;;;;0.15;86.83;99735.02;1697496;82;25927;-62
2021/04/07 05:58:33;;;;;;;27.70;9.75;;;;;;;0.16;86.87;99731.05;1700166;82;26867;-62
2021/04/07 06:01:02;;;;;;;50.25;16.05;;;;;;;0.22;86.99;99737.53;1643288;83;25951;-61
2021/04/07 06:03:30;;;;;;;26.50;10.45;;;;;;;0.22;87.13;99749.39;1657827;85;25995;-61
2021/04/07 06:05:58;;;;;;;23.40;10.68;;;;;;;0.24;87.19;99756.83;1621746;85;26250;-62
2021/04/07 06:08:29;;;;;;;42.00;18.05;;;;;;;0.25;87.35;99751.11;1675019;84;25676;-61
2021/04/07 06:10:58;;;;;;;41.30;17.02;;;;;;;0.28;87.38;99751.94;1652415;84;28135;-61
2021/04/07 06:13:27;;;;;;;30.82;13.08;;;;;;;0.33;87.43;99752.73;1641673;84;25878;-61
2021/04/07 06:15:56;;;;;;;36.58;12.70;;;;;;;0.40;87.39;99752.62;1678784;82;25801;-62
2021/04/07 06:18:24;;;;;;;50.35;18.65;;;;;;;0.45;87.45;99756.06;1686376;82;26168;-61
2021/04/07 06:20:52;;;;;;;31.80;15.32;;;;;;;0.47;87.58;99762.17;1686270;82;26122;-62
2021/04/07 06:23:20;;;;;;;37.88;16.80;;;;;;;0.52;87.58;99756.38;1701790;82;27835;-63
2021/04/07 06:25:49;;;;;;;43.00;15.78;;;;;;;0.58;87.59;99765.50;1671911;83;26901;-62
2021/04/07 06:28:17;;;;;;;19.87;9.85;;;;;;;0.62;87.54;99760.15;1683736;82;25853;-63
2021/04/07 06:30:45;;;;;;;24.05;10.85;;;;;;;0.68;87.57;99753.91;1687369;83;25804;-64
2021/04/07 06:33:30;;;;;;;22.27;11.03;;;;;;;0.75;87.60;99761.25;1691806;82;26504;-65
2021/04/07 06:36:03;;;;;;;39.78;16.85;;;;;;;0.81;87.54;99763.34;1686351;82;28522;-63
2021/04/07 06:38:34;;;;;;;34.35;14.50;;;;;;;0.90;87.69;99765.80;1702808;81;25976;-66
2021/04/07 06:41:04;;;;;;;24.45;11.57;;;;;;;0.96;87.60;99769.66;1685086;82;25745;-63
2021/04/07 06:43:34;;;;;;;40.83;17.00;;;;;;;1.00;87.75;99766.51;1691070;81;26619;-65
2021/04/07 06:46:08;;;;;;;32.13;14.38;;;;;;;1.08;87.79;99776.92;1672824;82;25888;-62
2021/04/07 06:48:34;;;;;;;23.18;11.73;;;;;;;1.17;87.77;99780.25;1680131;83;27274;-66
2021/04/07 06:51:03;;;;;;;28.00;11.38;;;;;;;1.29;87.61;99784.43;1712195;82;25804;-64
2021/04/07 06:53:32;;;;;;;41.90;12.57;;;;;;;1.34;87.85;99786.98;1683684;82;25825;-63
2021/04/07 06:56:01;;;;;;;34.98;11.78;;;;;;;1.32;87.97;99780.41;1708593;81;26056;-63
2021/04/07 06:58:30;;;;;;;29.67;10.82;;;;;;;1.36;88.06;99806.30;1694979;82;25926;-70
2021/04/07 07:00:58;;;;;;;21.07;8.13;;;;;;;1.37;88.21;99794.39;1719813;81;27186;-62
2021/04/07 07:03:26;;;;;;;19.20;7.97;;;;;;;1.37;88.16;99794.84;1690354;83;25851;-63
2021/04/07 07:05:55;;;;;;;28.62;12.30;;;;;;;1.39;88.23;99795.23;1703110;82;25923;-62
2021/04/07 07:08:25;;;;;;;30.17;10.08;;;;;;;1.41;88.29;99792.11;1696103;82;26218;-65
2021/04/07 07:10:53;;;;;;;23.50;8.93;;;;;;;1.52;88.42;99811.70;1682476;82;25994;-62
2021/04/07 07:13:25;;;;;;;22.98;7.62;;;;;;;1.54;88.31;99805.94;1694451;81;27413;-60
2021/04/07 07:15:53;;;;;;;18.70;6.20;;;;;;;1.53;87.86;99806.39;1680596;83;26590;-63
2021/04/07 07:18:25;;;;;;;23.65;7.25;;;;;;;1.48;88.31;99812.21;1655290;84;25834;-63
2021/04/07 07:20:56;;;;;;;17.65;7.37;;;;;;;1.43;88.42;99818.48;1702098;82;25439;-63
2021/04/07 07:23:30;;;;;;;23.18;8.40;;;;;;;1.46;88.58;99814.02;1695625;82;26842;-63
2021/04/07 07:26:05;;;;;;;18.98;6.72;;;;;;;1.52;88.59;99823.13;1700798;82;27987;-64
2021/04/07 07:28:54;;;;;;;22.07;7.72;;;;;;;1.55;88.76;99816.92;1691393;82;26778;-65
2021/04/07 07:31:29;;;;;;;21.80;6.97;;;;;;;1.59;88.69;99828.71;1702539;82;25793;-63
2021/04/07 07:34:02;;;;;;;14.33;6.33;;;;;;;1.76;88.48;99816.48;1701612;82;26143;-64
2021/04/07 07:36:34;;;;;;;11.12;4.83;;;;;;;1.84;88.33;99815.00;1702082;83;25784;-65
2021/04/07 07:39:08;;;;;;;14.15;5.22;;;;;;;1.89;88.28;99824.57;1704865;82;28151;-69
2021/04/07 07:41:36;;;;;;;21.23;7.97;;;;;;;1.94;88.25;99819.19;1691150;83;25853;-66
2021/04/07 07:44:07;;;;;;;9.98;4.40;;;;;;;2.04;88.21;99824.69;1700511;82;26170;-65
2021/04/07 07:46:37;;;;;;;14.35;5.22;;;;;;;2.18;87.91;99827.03;1696167;83;25887;-62
2021/04/07 07:49:16;;;;;;;12.65;4.28;;;;;;;2.24;87.68;99826.89;1707399;82;25929;-65
2021/04/07 07:51:47;;;;;;;25.52;5.15;;;;;;;2.28;87.36;99838.69;1700854;83;26137;-63
2021/04/07 07:54:19;;;;;;;15.20;5.33;;;;;;;2.28;87.39;99821.95;1695452;82;25841;-69
2021/04/07 07:56:49;;;;;;;19.67;6.97;;;;;;;2.26;86.12;99835.20;1689258;82;26149;-64
2021/04/07 07:59:37;;;;;;;11.53;5.10;;;;;;;2.30;87.03;99841.75;1682310;82;25797;-64
2021/04/07 08:02:17;;;;;;;20.15;6.35;;;;;;;2.28;86.75;99855.87;1698260;82;26400;-64
2021/04/07 08:04:50;;;;;;;11.20;4.92;;;;;;;2.24;86.76;99842.76;1713104;82;27851;-64
2021/04/07 08:07:18;;;;;;;15.63;5.17;;;;;;;2.25;86.62;99865.20;1686410;83;25881;-63
2021/04/07 08:09:49;;;;;;;28.10;6.97;;;;;;;2.26;86.44;99854.16;1695290;82;26415;-63
2021/04/07 08:12:20;;;;;;;15.78;4.60;;;;;;;2.35;86.34;99857.92;1672071;83;26375;-63
2021/04/07 08:14:51;;;;;;;22.87;5.70;;;;;;;2.35;86.24;99854.41;1710722;82;25916;-63
2021/04/07 08:17:21;;;;;;;13.85;4.10;;;;;;;2.42;86.37;99856.88;1694953;83;27836;-63
2021/04/07 08:19:51;;;;;;;10.20;3.37;;;;;;;2.49;86.19;99871.70;1687263;82;26185;-62
2021/04/07 08:22:20;;;;;;;31.85;7.20;;;;;;;2.52;86.17;99876.93;1695722;82;25792;-62
2021/04/07 08:24:50;;;;;;;15.90;3.55;;;;;;;2.53;86.21;99879.99;1686597;83;26742;-62
2021/04/07 08:27:21;;;;;;;15.00;4.23;;;;;;;2.51;85.60;99873.00;1675386;83;25494;-62
2021/04/07 08:29:48;;;;;;;15.43;4.57;;;;;;;2.52;85.82;99876.06;1707465;82;27387;-62
2021/04/07 08:32:22;;;;;;;17.85;4.40;;;;;;;2.53;85.66;99872.51;1690950;82;25776;-62
2021/04/07 08:34:52;;;;;;;33.02;6.92;;;;;;;2.57;85.68;99874.18;1690733;82;25882;-61
2021/04/07 08:37:30;;;;;;;31.05;8.30;;;;;;;2.69;85.80;99878.28;1683473;82;25817;-61
2021/04/07 08:40:17;;;;;;;23.27;5.22;;;;;;;2.82;85.59;99881.05;1681514;82;25813;-60
2021/04/07 08:42:44;;;;;;;35.20;9.30;;;;;;;2.84;85.32;99889.38;1660907;83;27176;-62
2021/04/07 08:45:15;;;;;;;14.43;5.60;;;;;;;2.91;85.22;99893.61;1687092;83;25789;-61
2021/04/07 08:48:02;;;;;;;9.78;3.30;;;;;;;2.92;84.85;99884.77;1685344;82;26097;-62
2021/04/07 08:50:30;;;;;;;16.80;4.00;;;;;;;2.81;84.35;99892.55;1676708;83;26821;-61
2021/04/07 08:53:03;;;;;;;27.87;8.38;;;;;;;2.82;83.89;99895.61;1698382;82;25896;-67
2021/04/07 08:55:31;;;;;;;17.77;4.97;;;;;;;2.84;83.30;99899.09;1710097;82;27346;-63
2021/04/07 08:58:10;;;;;;;35.83;8.50;;;;;;;2.78;83.79;99888.65;1716598;82;26051;-62
2021/04/07 09:00:40;;;;;;;13.90;3.87;;;;;;;2.78;83.85;99894.81;1670966;83;26512;-61
2021/04/07 09:03:14;;;;;;;12.88;3.55;;;;;;;2.72;83.73;99906.86;1681834;82;26083;-61
2021/04/07 09:05:48;;;;;;;11.85;3.10;;;;;;;2.67;83.37;99931.23;1705414;82;26054;-62
2021/04/07 09:08:25;;;;;;;12.50;3.22;;;;;;;2.67;83.20;99924.62;1697633;82;25922;-62
2021/04/07 09:10:58;;;;;;;8.08;2.65;;;;;;;2.64;82.00;99912.78;1680322;82;26006;-62
2021/04/07 09:13:35;;;;;;;29.18;6.20;;;;;;;2.71;80.95;99912.19;1663113;83;26160;-64
2021/04/07 09:16:10;;;;;;;31.40;8.48;;;;;;;2.87;81.21;99913.57;1645197;84;26608;-64
2021/04/07 09:18:53;;;;;;;23.00;7.62;;;;;;;3.02;81.20;99922.47;1642930;84;25469;-65
2021/04/07 09:21:22;;;;;;;24.72;6.40;;;;;;;3.13;81.22;99906.31;1626421;85;26030;-65
2021/04/07 09:24:01;;;;;;;31.27;7.57;;;;;;;3.25;81.21;99912.63;1636810;86;26384;-67
2021/04/07 09:26:32;;;;;;;19.50;5.10;;;;;;;3.30;80.87;99904.12;1646694;86;25805;-65
2021/04/07 09:29:02;;;;;;;28.80;7.60;;;;;;;3.40;81.39;99913.56;1664058;84;25879;-69
2021/04/07 09:31:35;;;;;;;21.93;6.67;;;;;;;3.53;81.33;99913.66;1645743;84;25807;-65
2021/04/07 09:34:03;;;;;;;34.95;9.28;;;;;;;3.56;81.39;99909.61;1657486;84;26582;-65
2021/04/07 09:36:41;;;;;;;22.25;7.00;;;;;;;3.53;81.24;99911.02;1652557;84;26087;-65
2021/04/07 09:39:12;;;;;;;17.50;5.17;;;;;;;3.46;80.84;99930.63;1697524;82;25863;-62
2021/04/07 09:41:44;;;;;;;11.45;3.90;;;;;;;3.25;80.75;99913.50;1654262;85;26044;-62
2021/04/07 09:44:16;;;;;;;36.03;7.08;;;;;;;3.15;80.39;99912.45;1668852;84;25855;-63
2021/04/07 09:46:57;;;;;;;32.70;7.92;;;;;;;3.19;80.48;99913.66;1650241;84;28020;-62
2021/04/07 09:49:35;;;;;;;26.17;7.35;;;;;;;3.32;80.12;99917.32;1645572;85;26585;-62
2021/04/07 09:52:02;;;;;;;18.85;5.40;;;;;;;3.35;79.58;99916.79;1673586;82;26458;-64
2021/04/07 09:54:48;;;;;;;17.57;4.30;;;;;;;3.32;79.23;99918.64;1692968;82;26732;-63
2021/04/07 09:57:12;;;;;;;43.70;9.85;;;;;;;3.24;78.79;99920.16;1675296;83;25907;-63
2021/04/07 09:59:55;;;;;;;53.83;10.05;;;;;;;3.16;78.90;99923.45;1688488;82;27349;-63
2021/04/07 10:02:26;;;;;;;26.65;6.08;;;;;;;3.10;78.53;99939.48;1698011;82;25866;-63
2021/04/07 10:04:54;;;;;;;;;;;;;;;3.09;78.58;99922.73;1695278;82;25523;-63
2021/04/07 10:07:29;;;;;;;49.42;12.10;;;;;;;3.16;77.95;99930.08;1670729;84;26020;-61
2021/04/07 10:10:03;;;;;;;16.15;5.00;;;;;;;3.21;77.77;99929.05;1679665;82;25848;-63
2021/04/07 10:12:33;;;;;;;23.32;7.42;;;;;;;3.32;77.80;99926.14;1689394;82;27332;-62
2021/04/07 10:15:06;;;;;;;27.13;6.78;;;;;;;3.41;77.77;99939.60;1702228;82;26228;-63
2021/04/07 10:17:36;;;;;;;26.27;7.15;;;;;;;3.46;77.42;99934.59;1683616;82;26627;-63
2021/04/07 10:20:10;;;;;;;19.60;5.62;;;;;;;3.45;77.37;99930.66;1722513;81;26132;-62
2021/04/07 10:22:40;;;;;;;23.67;5.85;;;;;;;3.41;76.56;99937.82;1689622;81;26027;-63
2021/04/07 10:25:19;;;;;;;30.70;7.30;;;;;;;3.36;76.43;99938.84;1689838;81;27531;-64
2021/04/07 10:27:46;;;;;;;23.32;5.85;;;;;;;3.34;75.69;99940.21;1692827;82;25994;-62
2021/04/07 10:30:20;;;;;;;26.17;5.80;;;;;;;3.41;75.85;99939.15;1687051;81;26834;-61
2021/04/07 10:32:57;;;;;;;33.05;7.95;;;;;;;3.51;75.63;99946.41;1682993;83;25967;-61
2021/04/07 10:35:31;;;;;;;33.50;7.30;;;;;;;3.55;74.07;99952.91;1706802;81;26075;-61
2021/04/07 10:38:04;;;;;;;30.72;7.50;;;;;;;3.66;75.23;99957.93;1693033;82;27470;-61
2021/04/07 10:40:39;;;;;;;40.00;7.50;;;;;;;3.81;75.25;99948.25;1698709;81;25908;-61
2021/04/07 10:43:18;;;;;;;16.57;4.30;;;;;;;3.99;74.80;99953.95;1687287;82;25922;-62
2021/04/07 10:46:05;;;;;;;20.85;5.60;;;;;;;4.03;73.63;99947.20;1688061;81;26750;-62
2021/04/07 10:48:35;;;;;;;16.35;4.35;;;;;;;3.90;73.82;99949.78;1680072;83;26214;-61
2021/04/07 10:51:04;;;;;;;50.00;9.83;;;;;;;3.90;73.36;99967.88;1695307;81;27859;-61
2021/04/07 10:53:43;;;;;;;25.08;5.62;;;;;;;3.95;73.41;99950.52;1655137;84;25937;-61
2021/04/07 10:56:20;;;;;;;16.05;4.17;;;;;;;4.10;73.69;99944.80;1678404;83;25940;-59
2021/04/07 10:58:59;;;;;;;15.48;4.60;;;;;;;4.32;73.52;99945.51;1678697;83;26672;-59
2021/04/07 11:01:37;;;;;;;21.05;5.40;;;;;;;4.55;73.72;99953.66;1683103;82;25882;-63
2021/04/07 11:04:17;;;;;;;45.35;8.53;;;;;;;4.54;71.97;99954.13;1688603;82;25987;-63
2021/04/07 11:06:47;;;;;;;15.30;5.17;;;;;;;4.44;71.98;99948.67;1685855;82;26023;-64
2021/04/07 11:09:16;;;;;;;37.13;7.23;;;;;;;4.48;72.11;99952.11;1703337;82;25961;-63
2021/04/07 11:11:44;;;;;;;35.92;7.55;;;;;;;4.48;70.42;99956.95;1695635;82;26040;-67
2021/04/07 11:14:11;;;;;;;62.13;12.00;;;;;;;4.42;69.12;99951.83;1693942;82;25923;-65
2021/04/07 11:16:39;;;;;;;52.10;11.68;;;;;;;4.35;69.76;99949.40;1667522;82;28491;-65
2021/04/07 11:19:15;;;;;;;26.20;6.53;;;;;;;4.50;69.43;99949.81;1687187;82;25892;-63
2021/04/07 11:21:44;;;;;;;27.13;5.72;;;;;;;4.55;68.95;99953.66;1712407;82;25972;-62
2021/04/07 11:24:12;;;;;;;23.00;5.30;;;;;;;4.68;67.66;99954.16;1660187;83;26276;-62
2021/04/07 11:26:40;;;;;;;19.50;4.65;;;;;;;4.66;67.06;99943.59;1685071;83;26741;-65
2021/04/07 11:29:10;;;;;;;10.23;2.85;;;;;;;4.67;66.16;99949.31;1676796;83;28482;-64
2021/04/07 11:31:38;;;;;;;10.90;2.85;;;;;;;4.67;67.00;99957.27;1695163;83;26194;-64
2021/04/07 11:34:08;;;;;;;8.65;3.12;;;;;;;4.79;67.14;99937.45;1659805;84;25823;-64
2021/04/07 11:36:48;;;;;;;52.40;11.80;;;;;;;4.87;66.65;99950.03;1681813;83;26623;-61
2021/04/07 11:39:51;;;;;;;39.63;6.75;;;;;;;4.97;66.40;99943.97;1647923;84;25976;-62
2021/04/07 11:46:52;;;;;;;9.95;2.67;;;;;;;4.73;64.19;99955.77;1680746;83;26047;-64